createdAt,value
2018-06-05T00:00:03.416Z,9.90
2018-06-05T00:00:34.649Z,9.58
2018-06-05T00:01:05.898Z,10.40
2018-06-05T00:01:38.285Z,10.50
2018-06-05T00:02:09.464Z,10.10
2018-06-05T00:02:40.688Z,10.70
2018-06-05T00:03:11.919Z,10.60
2018-06-05T00:03:43.181Z,10.72
2018-06-05T00:04:14.365Z,10.13
2018-06-05T00:04:45.533Z,10.63
2018-06-05T00:05:16.774Z,10.40
2018-06-05T00:05:48.013Z,10.20
2018-06-05T00:06:19.209Z,10.85
2018-06-05T00:06:50.380Z,10.50
2018-06-05T00:07:21.566Z,10.55
2018-06-05T00:07:52.731Z,10.40
2018-06-05T00:08:23.961Z,10.38
2018-06-05T00:08:55.236Z,9.80
2018-06-05T00:09:26.419Z,9.95
2018-06-05T00:09:57.652Z,10.05
2018-06-05T00:10:28.895Z,10.35
2018-06-05T00:11:00.085Z,10.70
2018-06-05T00:11:31.324Z,10.60
2018-06-05T00:12:02.568Z,10.40
2018-06-05T00:12:33.751Z,10.45
2018-06-05T00:13:04.959Z,9.95
2018-06-05T00:13:36.132Z,9.33
2018-06-05T00:14:07.316Z,10.10
2018-06-05T00:14:38.488Z,10.10
2018-06-05T00:15:09.704Z,10.18
2018-06-05T00:15:40.989Z,10.25
2018-06-05T00:16:12.239Z,10.32
2018-06-05T00:16:43.426Z,11.00
2018-06-05T00:17:14.644Z,10.35
2018-06-05T00:17:45.820Z,10.53
2018-06-05T00:18:17.030Z,10.50
2018-06-05T00:18:48.254Z,10.43
2018-06-05T00:19:19.440Z,10.93
2018-06-05T00:19:50.618Z,10.48
2018-06-05T00:20:21.850Z,10.08
2018-06-05T00:20:53.040Z,10.30
2018-06-05T00:21:25.369Z,8.90
2018-06-05T00:21:56.545Z,9.48
2018-06-05T00:22:27.776Z,10.13
2018-06-05T00:22:59.010Z,10.35
2018-06-05T00:23:30.243Z,9.50
2018-06-05T00:24:02.348Z,9.68
2018-06-05T00:24:33.532Z,8.73
2018-06-05T00:25:04.706Z,9.58
2018-06-05T00:25:35.879Z,9.10
2018-06-05T00:26:07.112Z,8.70
2018-06-05T00:26:38.304Z,8.70
2018-06-05T00:27:09.477Z,8.40
2018-06-05T00:27:40.658Z,8.93
2018-06-05T00:28:11.836Z,8.75
2018-06-05T00:28:43.048Z,9.10
2018-06-05T00:29:14.221Z,9.23
2018-06-05T00:29:45.456Z,8.25
2018-06-05T00:30:16.632Z,8.95
2018-06-05T00:30:47.852Z,8.93
2018-06-05T00:31:20.033Z,8.90
2018-06-05T00:31:51.200Z,9.05
2018-06-05T00:32:22.374Z,8.58
2018-06-05T00:32:53.618Z,8.63
2018-06-05T00:33:24.790Z,8.45
2018-06-05T00:33:56.017Z,8.33
2018-06-05T00:34:27.200Z,8.13
2018-06-05T00:34:58.387Z,8.60
2018-06-05T00:35:29.613Z,8.43
2018-06-05T00:36:00.802Z,9.35
2018-06-05T00:36:32.046Z,9.18
2018-06-05T00:37:03.240Z,8.85
2018-06-05T00:37:34.410Z,8.85
2018-06-05T00:38:05.677Z,9.00
2018-06-05T00:38:36.907Z,8.78
2018-06-05T00:39:08.129Z,8.78
2018-06-05T00:39:39.361Z,8.33
2018-06-05T00:40:10.557Z,8.43
2018-06-05T00:40:41.776Z,9.43
2018-06-05T00:41:12.956Z,8.40
2018-06-05T00:41:44.135Z,8.68
2018-06-05T00:42:15.313Z,8.43
2018-06-05T00:42:46.538Z,8.50
2018-06-05T00:43:18.469Z,8.63
2018-06-05T00:43:49.649Z,8.33
2018-06-05T00:44:20.841Z,9.05
2018-06-05T00:44:52.012Z,8.30
2018-06-05T00:45:23.188Z,8.63
2018-06-05T00:45:54.456Z,8.30
2018-06-05T00:46:25.689Z,8.23
2018-06-05T00:46:56.952Z,9.15
2018-06-05T00:47:28.186Z,8.48
2018-06-05T00:47:59.367Z,8.70
2018-06-05T00:48:30.600Z,8.55
2018-06-05T00:49:01.790Z,8.80
2018-06-05T00:49:32.966Z,9.05
2018-06-05T00:50:04.366Z,9.10
2018-06-05T00:50:35.590Z,8.55
2018-06-05T00:51:06.801Z,8.38
2018-06-05T00:51:38.025Z,8.43
2018-06-05T00:52:09.266Z,9.10
2018-06-05T00:52:40.501Z,8.55
2018-06-05T00:53:11.684Z,8.38
2018-06-05T00:53:42.861Z,8.63
2018-06-05T00:54:14.045Z,8.45
2018-06-05T00:54:45.274Z,8.65
2018-06-05T00:55:16.448Z,9.28
2018-06-05T00:55:47.688Z,8.98
2018-06-05T00:56:18.865Z,8.93
2018-06-05T00:56:50.045Z,8.90
2018-06-05T00:57:21.278Z,9.30
2018-06-05T00:57:52.510Z,9.03
2018-06-05T00:58:23.692Z,9.23
2018-06-05T00:58:54.916Z,9.08
2018-06-05T00:59:26.104Z,8.90
2018-06-05T00:59:57.269Z,8.95
2018-06-05T01:00:28.502Z,9.45
2018-06-05T01:00:59.719Z,9.55
2018-06-05T01:01:30.902Z,9.08
2018-06-05T01:02:02.124Z,9.33
2018-06-05T01:02:33.300Z,9.03
2018-06-05T01:03:04.565Z,9.65
2018-06-05T01:03:35.740Z,9.08
2018-06-05T01:04:06.922Z,9.30
2018-06-05T01:04:38.092Z,8.60
2018-06-05T01:05:09.270Z,9.43
2018-06-05T01:05:40.444Z,8.90
2018-06-05T01:06:11.616Z,9.08
2018-06-05T01:06:42.792Z,8.50
2018-06-05T01:07:13.996Z,8.50
2018-06-05T01:07:45.160Z,8.60
2018-06-05T01:08:16.387Z,8.13
2018-06-05T01:08:47.575Z,8.88
2018-06-05T01:09:18.749Z,8.48
2018-06-05T01:09:49.992Z,9.68
2018-06-05T01:10:21.176Z,9.40
2018-06-05T01:10:52.348Z,9.43
2018-06-05T01:11:23.622Z,9.60
2018-06-05T01:11:54.862Z,9.23
2018-06-05T01:12:26.051Z,9.05
2018-06-05T01:12:57.278Z,8.53
2018-06-05T01:13:28.463Z,8.43
2018-06-05T01:13:59.674Z,8.35
2018-06-05T01:14:30.890Z,9.05
2018-06-05T01:15:02.066Z,9.78
2018-06-05T01:15:33.294Z,9.20
2018-06-05T01:16:04.528Z,9.40
2018-06-05T01:16:35.711Z,8.95
2018-06-05T01:17:06.884Z,8.70
2018-06-05T01:17:38.056Z,9.58
2018-06-05T01:18:09.282Z,8.35
2018-06-05T01:18:40.555Z,8.60
2018-06-05T01:19:11.729Z,8.30
2018-06-05T01:19:42.904Z,8.25
2018-06-05T01:20:14.070Z,7.70
2018-06-05T01:20:45.256Z,8.45
2018-06-05T01:21:16.427Z,7.55
2018-06-05T01:21:47.604Z,8.75
2018-06-05T01:22:18.861Z,7.90
2018-06-05T01:22:50.096Z,8.58
2018-06-05T01:23:21.337Z,7.60
2018-06-05T01:23:52.512Z,8.40
2018-06-05T01:24:23.704Z,8.03
2018-06-05T01:24:54.927Z,7.72
2018-06-05T01:25:26.091Z,8.08
2018-06-05T01:25:57.337Z,8.38
2018-06-05T01:26:28.520Z,8.13
2018-06-05T01:26:59.695Z,8.40
2018-06-05T01:27:30.915Z,8.28
2018-06-05T01:28:02.101Z,8.18
2018-06-05T01:28:33.338Z,8.50
2018-06-05T01:29:04.508Z,8.20
2018-06-05T01:29:35.729Z,8.23
2018-06-05T01:30:06.961Z,8.65
2018-06-05T01:30:38.153Z,8.70
2018-06-05T01:31:09.925Z,8.93
2018-06-05T01:31:41.096Z,8.58
2018-06-05T01:32:12.268Z,8.28
2018-06-05T01:32:43.445Z,8.98
2018-06-05T01:33:14.616Z,9.10
2018-06-05T01:33:45.872Z,8.98
2018-06-05T01:34:17.048Z,9.30
2018-06-05T01:34:48.225Z,9.23
2018-06-05T01:35:19.394Z,8.65
2018-06-05T01:35:50.653Z,9.15
2018-06-05T01:36:21.886Z,7.83
2018-06-05T01:36:53.059Z,8.38
2018-06-05T01:37:24.302Z,8.48
2018-06-05T01:37:55.480Z,8.78
2018-06-05T01:38:26.704Z,8.90
2018-06-05T01:38:57.919Z,8.40
2018-06-05T01:39:29.093Z,8.50
2018-06-05T01:40:00.315Z,8.70
2018-06-05T01:40:31.540Z,7.83
2018-06-05T01:41:02.772Z,8.08
2018-06-05T01:41:34.001Z,8.35
2018-06-05T01:42:05.182Z,8.38
2018-06-05T01:42:36.364Z,7.75
2018-06-05T01:43:07.582Z,8.08
2018-06-05T01:43:38.808Z,7.95
2018-06-05T01:44:10.089Z,7.60
2018-06-05T01:44:41.272Z,7.50
2018-06-05T01:45:12.455Z,7.90
2018-06-05T01:45:43.622Z,8.30
2018-06-05T01:46:14.796Z,8.30
2018-06-05T01:46:46.013Z,8.05
2018-06-05T01:47:17.196Z,8.55
2018-06-05T01:47:48.431Z,8.23
2018-06-05T01:48:19.711Z,8.50
2018-06-05T01:48:50.892Z,8.40
2018-06-05T01:49:22.071Z,8.68
2018-06-05T01:49:53.245Z,8.23
2018-06-05T01:50:24.465Z,8.25
2018-06-05T01:50:55.644Z,8.70
2018-06-05T01:51:26.817Z,8.35
2018-06-05T01:51:58.214Z,8.45
2018-06-05T01:52:29.398Z,8.00
2018-06-05T01:53:00.568Z,8.30
2018-06-05T01:53:31.817Z,8.00
2018-06-05T01:54:02.992Z,9.25
2018-06-05T01:54:34.166Z,8.85
2018-06-05T01:55:05.359Z,8.90
2018-06-05T01:55:36.591Z,8.68
2018-06-05T01:56:07.777Z,8.55
2018-06-05T01:56:38.953Z,8.40
2018-06-05T01:57:10.186Z,8.75
2018-06-05T01:57:41.574Z,7.97
2018-06-05T01:58:12.746Z,8.83
2018-06-05T01:58:43.981Z,7.70
2018-06-05T01:59:15.192Z,7.80
2018-06-05T01:59:46.685Z,7.15
2018-06-05T02:00:17.864Z,7.20
2018-06-05T02:00:49.093Z,7.03
2018-06-05T02:01:20.271Z,8.33
2018-06-05T02:01:51.433Z,7.47
2018-06-05T02:02:22.605Z,8.43
2018-06-05T02:02:53.781Z,7.37
2018-06-05T02:03:25.005Z,7.90
2018-06-05T02:03:56.180Z,7.67
2018-06-05T02:04:27.397Z,7.47
2018-06-05T02:04:58.583Z,7.30
2018-06-05T02:05:29.804Z,7.78
2018-06-05T02:06:00.984Z,8.48
2018-06-05T02:06:32.168Z,7.70
2018-06-05T02:07:03.333Z,7.80
2018-06-05T02:07:34.500Z,8.15
2018-06-05T02:08:05.679Z,7.33
2018-06-05T02:08:36.897Z,7.03
2018-06-05T02:09:08.120Z,6.83
2018-06-05T02:09:39.293Z,7.05
2018-06-05T02:10:10.467Z,7.20
2018-06-05T02:10:42.775Z,6.80
2018-06-05T02:11:13.948Z,7.20
2018-06-05T02:11:45.172Z,7.03
2018-06-05T02:12:16.489Z,7.65
2018-06-05T02:12:47.664Z,8.00
2018-06-05T02:13:18.884Z,7.37
2018-06-05T02:13:50.076Z,7.35
2018-06-05T02:14:21.292Z,7.55
2018-06-05T02:14:52.514Z,6.97
2018-06-05T02:15:23.806Z,7.17
2018-06-05T02:15:54.978Z,7.12
2018-06-05T02:16:26.205Z,6.70
2018-06-05T02:16:57.376Z,7.12
2018-06-05T02:17:28.580Z,7.30
2018-06-05T02:17:59.740Z,7.50
2018-06-05T02:18:30.922Z,7.22
2018-06-05T02:19:02.090Z,7.40
2018-06-05T02:19:33.256Z,7.70
2018-06-05T02:20:04.428Z,7.28
2018-06-05T02:20:35.645Z,7.53
2018-06-05T02:21:06.812Z,7.78
2018-06-05T02:21:37.984Z,7.12
2018-06-05T02:22:09.248Z,7.15
2018-06-05T02:22:40.420Z,7.58
2018-06-05T02:23:11.604Z,7.28
2018-06-05T02:23:42.830Z,7.80
2018-06-05T02:24:14.073Z,6.95
2018-06-05T02:24:45.256Z,7.72
2018-06-05T02:25:16.432Z,7.75
2018-06-05T02:25:47.640Z,7.67
2018-06-05T02:26:18.813Z,7.35
2018-06-05T02:26:49.976Z,8.23
2018-06-05T02:27:21.212Z,7.20
2018-06-05T02:27:52.398Z,8.50
2018-06-05T02:28:23.572Z,8.50
2018-06-05T02:28:54.744Z,7.28
2018-06-05T02:29:25.954Z,7.87
2018-06-05T02:29:57.165Z,7.65
2018-06-05T02:30:28.361Z,8.38
2018-06-05T02:30:59.581Z,8.63
2018-06-05T02:31:30.813Z,8.10
2018-06-05T02:32:01.982Z,7.87
2018-06-05T02:32:33.201Z,7.83
2018-06-05T02:33:04.428Z,8.35
2018-06-05T02:33:35.604Z,8.00
2018-06-05T02:34:06.811Z,7.45
2018-06-05T02:34:37.986Z,7.83
2018-06-05T02:35:09.156Z,7.53
2018-06-05T02:35:40.333Z,8.15
2018-06-05T02:36:11.505Z,7.40
2018-06-05T02:36:42.680Z,7.28
2018-06-05T02:37:13.907Z,7.90
2018-06-05T02:37:45.088Z,8.18
2018-06-05T02:38:16.257Z,8.23
2018-06-05T02:38:47.514Z,7.72
2018-06-05T02:39:18.694Z,8.40
2018-06-05T02:39:49.923Z,8.35
2018-06-05T02:40:21.104Z,8.88
2018-06-05T02:40:52.272Z,8.20
2018-06-05T02:41:23.539Z,9.03
2018-06-05T02:41:54.740Z,8.48
2018-06-05T02:42:25.917Z,9.08
2018-06-05T02:42:57.130Z,8.55
2018-06-05T02:43:28.365Z,8.68
2018-06-05T02:43:59.558Z,8.08
2018-06-05T02:44:30.724Z,9.05
2018-06-05T02:45:01.939Z,8.38
2018-06-05T02:45:33.160Z,8.43
2018-06-05T02:46:04.321Z,8.30
2018-06-05T02:46:35.597Z,8.70
2018-06-05T02:47:06.779Z,8.68
2018-06-05T02:47:37.944Z,8.88
2018-06-05T02:48:09.105Z,8.70
2018-06-05T02:48:40.290Z,8.80
2018-06-05T02:49:11.476Z,8.78
2018-06-05T02:49:42.698Z,9.05
2018-06-05T02:50:13.928Z,9.43
2018-06-05T02:50:45.246Z,9.45
2018-06-05T02:51:16.438Z,8.63
2018-06-05T02:51:47.699Z,9.13
2018-06-05T02:52:18.933Z,9.20
2018-06-05T02:52:50.174Z,9.15
2018-06-05T02:53:21.352Z,8.68
2018-06-05T02:53:52.578Z,9.23
2018-06-05T02:54:23.800Z,9.45
2018-06-05T02:54:55.029Z,8.20
2018-06-05T02:55:26.259Z,9.00
2018-06-05T02:55:57.436Z,8.73
2018-06-05T02:56:28.616Z,9.28
2018-06-05T02:56:59.812Z,9.00
2018-06-05T02:57:31.104Z,9.25
2018-06-05T02:58:02.345Z,9.00
2018-06-05T02:58:33.602Z,9.15
2018-06-05T02:59:04.768Z,8.83
2018-06-05T02:59:35.939Z,8.70
2018-06-05T03:00:07.107Z,9.10
2018-06-05T03:00:38.338Z,8.50
2018-06-05T03:01:09.529Z,8.68
2018-06-05T03:01:40.700Z,8.60
2018-06-05T03:02:12.841Z,9.30
2018-06-05T03:02:44.064Z,9.18
2018-06-05T03:03:15.303Z,8.85
2018-06-05T03:03:46.502Z,8.43
2018-06-05T03:04:17.733Z,9.18
2018-06-05T03:04:48.961Z,8.93
2018-06-05T03:05:20.191Z,9.08
2018-06-05T03:05:51.358Z,8.93
2018-06-05T03:06:22.532Z,9.55
2018-06-05T03:06:53.710Z,9.45
2018-06-05T03:07:24.884Z,8.93
2018-06-05T03:07:56.194Z,9.05
2018-06-05T03:08:27.473Z,9.30
2018-06-05T03:08:58.702Z,8.78
2018-06-05T03:09:29.882Z,8.93
2018-06-05T03:10:01.048Z,8.55
2018-06-05T03:10:32.271Z,9.58
2018-06-05T03:11:03.493Z,8.88
2018-06-05T03:11:34.702Z,8.98
2018-06-05T03:12:05.965Z,9.68
2018-06-05T03:12:37.207Z,10.35
2018-06-05T03:13:08.402Z,9.20
2018-06-05T03:13:39.581Z,10.00
2018-06-05T03:14:10.781Z,9.75
2018-06-05T03:14:41.967Z,10.03
2018-06-05T03:15:13.141Z,9.85
2018-06-05T03:15:44.409Z,10.18
2018-06-05T03:16:15.596Z,9.25
2018-06-05T03:16:46.772Z,9.48
2018-06-05T03:17:17.949Z,9.58
2018-06-05T03:17:49.208Z,9.35
2018-06-05T03:18:20.388Z,10.00
2018-06-05T03:18:51.649Z,10.00
2018-06-05T03:19:22.886Z,10.18
2018-06-05T03:19:54.116Z,10.28
2018-06-05T03:20:25.289Z,9.45
2018-06-05T03:20:56.521Z,9.98
2018-06-05T03:21:27.703Z,10.60
2018-06-05T03:21:58.921Z,10.18
2018-06-05T03:22:30.170Z,9.93
2018-06-05T03:23:01.353Z,10.00
2018-06-05T03:23:32.581Z,10.18
2018-06-05T03:24:03.801Z,10.13
2018-06-05T03:24:34.969Z,9.83
2018-06-05T03:25:06.233Z,9.65
2018-06-05T03:25:37.461Z,9.28
2018-06-05T03:26:08.641Z,10.15
2018-06-05T03:26:39.816Z,10.08
2018-06-05T03:27:11.037Z,9.70
2018-06-05T03:27:42.274Z,9.70
2018-06-05T03:28:13.515Z,9.63
2018-06-05T03:28:44.694Z,9.70
2018-06-05T03:29:15.963Z,9.33
2018-06-05T03:29:47.145Z,9.60
2018-06-05T03:30:18.366Z,9.45
2018-06-05T03:30:49.612Z,9.88
2018-06-05T03:31:20.790Z,9.10
2018-06-05T03:31:51.962Z,9.75
2018-06-05T03:32:23.178Z,9.20
2018-06-05T03:32:54.364Z,9.15
2018-06-05T03:33:25.585Z,9.73
2018-06-05T03:33:56.841Z,9.25
2018-06-05T03:34:28.153Z,9.48
2018-06-05T03:34:59.381Z,9.70
2018-06-05T03:35:30.567Z,9.43
2018-06-05T03:36:01.746Z,9.68
2018-06-05T03:36:32.972Z,10.93
2018-06-05T03:37:04.210Z,9.93
2018-06-05T03:37:35.449Z,9.60
2018-06-05T03:38:06.628Z,8.93
2018-06-05T03:38:37.796Z,9.60
2018-06-05T03:39:09.033Z,9.68
2018-06-05T03:39:40.272Z,9.83
2018-06-05T03:40:11.503Z,9.33
2018-06-05T03:40:42.735Z,9.60
2018-06-05T03:41:13.972Z,9.80
2018-06-05T03:41:45.211Z,9.85
2018-06-05T03:42:16.413Z,8.93
2018-06-05T03:42:47.686Z,9.78
2018-06-05T03:43:18.868Z,9.58
2018-06-05T03:43:50.049Z,9.35
2018-06-05T03:44:21.230Z,9.35
2018-06-05T03:44:52.410Z,9.33
2018-06-05T03:45:23.594Z,10.20
2018-06-05T03:45:54.769Z,9.93
2018-06-05T03:46:25.945Z,10.25
2018-06-05T03:46:57.120Z,9.73
2018-06-05T03:47:28.385Z,10.03
2018-06-05T03:47:59.622Z,10.45
2018-06-05T03:48:30.804Z,9.88
2018-06-05T03:49:02.335Z,10.10
2018-06-05T03:49:33.528Z,10.25
2018-06-05T03:50:04.768Z,9.70
2018-06-05T03:50:35.951Z,9.87
2018-06-05T03:51:07.189Z,9.70
2018-06-05T03:51:38.421Z,10.03
2018-06-05T03:52:10.447Z,9.43
2018-06-05T03:52:41.668Z,9.40
2018-06-05T03:53:12.840Z,9.10
2018-06-05T03:53:44.014Z,9.13
2018-06-05T03:54:15.190Z,9.57
2018-06-05T03:54:46.405Z,9.27
2018-06-05T03:55:17.569Z,9.30
2018-06-05T03:55:48.757Z,9.10
2018-06-05T03:56:19.937Z,9.40
2018-06-05T03:56:51.157Z,9.70
2018-06-05T03:57:22.389Z,9.80
2018-06-05T03:57:53.579Z,9.43
2018-06-05T03:58:24.756Z,9.27
2018-06-05T03:58:55.971Z,8.50
2018-06-05T03:59:27.156Z,9.67
2018-06-05T03:59:58.377Z,9.17
2018-06-05T04:00:29.605Z,9.93
2018-06-05T04:01:00.797Z,9.03
2018-06-05T04:01:32.068Z,9.20
2018-06-05T04:02:03.455Z,9.80
2018-06-05T04:02:34.651Z,9.20
2018-06-05T04:03:05.832Z,9.80
2018-06-05T04:03:37.008Z,9.00
2018-06-05T04:04:08.205Z,9.80
2018-06-05T04:04:39.386Z,9.47
2018-06-05T04:05:10.565Z,9.63
2018-06-05T04:05:41.772Z,9.87
2018-06-05T04:06:13.017Z,9.27
2018-06-05T04:06:44.209Z,9.30
2018-06-05T04:07:15.473Z,8.50
2018-06-05T04:07:46.656Z,8.47
2018-06-05T04:08:17.828Z,8.37
2018-06-05T04:08:49.001Z,9.10
2018-06-05T04:09:20.170Z,9.43
2018-06-05T04:09:51.393Z,8.90
2018-06-05T04:10:22.572Z,9.57
2018-06-05T04:10:53.756Z,9.40
2018-06-05T04:11:24.929Z,9.00
2018-06-05T04:11:56.163Z,8.93
2018-06-05T04:12:27.391Z,8.80
2018-06-05T04:12:58.576Z,9.60
2018-06-05T04:13:29.814Z,8.97
2018-06-05T04:14:00.993Z,9.47
2018-06-05T04:14:32.224Z,9.20
2018-06-05T04:15:03.454Z,8.80
2018-06-05T04:15:34.632Z,9.20
2018-06-05T04:16:05.812Z,10.27
2018-06-05T04:16:36.986Z,9.90
2018-06-05T04:17:08.225Z,9.97
2018-06-05T04:17:39.464Z,9.37
2018-06-05T04:18:10.688Z,10.10
2018-06-05T04:18:41.886Z,9.43
2018-06-05T04:19:13.122Z,9.17
2018-06-05T04:19:44.351Z,9.13
2018-06-05T04:20:15.532Z,8.80
2018-06-05T04:20:46.767Z,9.17
2018-06-05T04:21:17.953Z,8.30
2018-06-05T04:21:49.131Z,8.27
2018-06-05T04:22:20.353Z,9.03
2018-06-05T04:22:51.541Z,9.73
2018-06-05T04:23:22.769Z,9.17
2018-06-05T04:23:54.000Z,8.93
2018-06-05T04:24:25.280Z,9.50
2018-06-05T04:24:56.468Z,9.33
2018-06-05T04:25:27.640Z,9.63
2018-06-05T04:25:58.893Z,9.47
2018-06-05T04:26:30.073Z,9.73
2018-06-05T04:27:01.282Z,8.10
2018-06-05T04:27:32.464Z,9.17
2018-06-05T04:28:03.658Z,9.20
2018-06-05T04:28:34.844Z,9.73
2018-06-05T04:29:06.065Z,8.50
2018-06-05T04:29:37.298Z,9.53
2018-06-05T04:30:08.542Z,9.40
2018-06-05T04:30:39.728Z,9.47
2018-06-05T04:31:10.951Z,9.07
2018-06-05T04:31:42.184Z,9.40
2018-06-05T04:32:13.423Z,10.00
2018-06-05T04:32:44.601Z,9.90
2018-06-05T04:33:15.768Z,9.17
2018-06-05T04:33:46.951Z,9.50
2018-06-05T04:34:18.191Z,9.83
2018-06-05T04:34:49.458Z,9.50
2018-06-05T04:35:20.706Z,9.67
2018-06-05T04:35:51.936Z,9.37
2018-06-05T04:36:23.178Z,9.93
2018-06-05T04:36:54.356Z,10.37
2018-06-05T04:37:25.540Z,10.43
2018-06-05T04:37:56.751Z,8.77
2018-06-05T04:38:27.989Z,9.40
2018-06-05T04:38:59.177Z,9.43
2018-06-05T04:39:30.348Z,9.67
2018-06-05T04:40:01.566Z,9.63
2018-06-05T04:40:32.810Z,9.70
2018-06-05T04:41:04.084Z,10.27
2018-06-05T04:41:35.313Z,9.80
2018-06-05T04:42:06.497Z,9.70
2018-06-05T04:42:37.675Z,10.27
2018-06-05T04:43:08.852Z,10.43
2018-06-05T04:43:40.025Z,10.13
2018-06-05T04:44:11.249Z,9.80
2018-06-05T04:44:42.477Z,10.33
2018-06-05T04:45:13.661Z,10.10
2018-06-05T04:45:44.840Z,9.97
2018-06-05T04:46:16.117Z,10.27
2018-06-05T04:46:47.348Z,10.43
2018-06-05T04:47:18.560Z,10.73
2018-06-05T04:47:49.748Z,10.67
2018-06-05T04:48:20.923Z,10.60
2018-06-05T04:48:52.109Z,10.13
2018-06-05T04:49:23.288Z,10.10
2018-06-05T04:49:54.469Z,10.73
2018-06-05T04:50:25.637Z,10.77
2018-06-05T04:50:56.919Z,9.87
2018-06-05T04:51:28.115Z,11.10
2018-06-05T04:51:59.281Z,10.63
2018-06-05T04:52:30.476Z,10.43
2018-06-05T04:53:01.649Z,10.80
2018-06-05T04:53:32.834Z,10.80
2018-06-05T04:54:04.021Z,10.73
2018-06-05T04:54:35.200Z,10.70
2018-06-05T04:55:06.368Z,10.57
2018-06-05T04:55:37.586Z,10.67
2018-06-05T04:56:08.899Z,10.17
2018-06-05T04:56:40.857Z,9.87
2018-06-05T04:57:12.086Z,10.23
2018-06-05T04:57:43.306Z,10.70
2018-06-05T04:58:14.483Z,10.30
2018-06-05T04:58:45.719Z,10.10
2018-06-05T04:59:16.901Z,9.73
2018-06-05T04:59:48.122Z,9.80
2018-06-05T05:00:19.353Z,10.40
2018-06-05T05:00:50.579Z,10.73
2018-06-05T05:01:21.759Z,10.33
2018-06-05T05:01:52.933Z,10.03
2018-06-05T05:02:24.222Z,9.63
2018-06-05T05:02:55.397Z,10.50
2018-06-05T05:03:26.621Z,9.73
2018-06-05T05:03:57.847Z,10.23
2018-06-05T05:04:29.018Z,9.83
2018-06-05T05:05:00.199Z,10.27
2018-06-05T05:05:31.383Z,10.40
2018-06-05T05:06:02.606Z,10.27
2018-06-05T05:06:33.909Z,9.93
2018-06-05T05:07:05.138Z,8.93
2018-06-05T05:07:36.377Z,9.80
2018-06-05T05:08:07.564Z,10.20
2018-06-05T05:08:38.784Z,9.67
2018-06-05T05:09:10.022Z,10.10
2018-06-05T05:09:41.214Z,9.63
2018-06-05T05:10:12.400Z,10.10
2018-06-05T05:10:43.588Z,10.37
2018-06-05T05:11:14.819Z,9.90
2018-06-05T05:11:46.105Z,9.90
2018-06-05T05:12:17.348Z,10.37
2018-06-05T05:12:48.532Z,8.30
2018-06-05T05:13:19.753Z,9.47
2018-06-05T05:13:50.936Z,8.73
2018-06-05T05:14:22.165Z,9.77
2018-06-05T05:14:53.365Z,9.00
2018-06-05T05:15:24.537Z,9.07
2018-06-05T05:15:55.716Z,9.37
2018-06-05T05:16:26.955Z,8.90
2018-06-05T05:16:58.215Z,9.10
2018-06-05T05:17:29.435Z,9.03
2018-06-05T05:18:00.665Z,9.47
2018-06-05T05:18:31.854Z,8.87
2018-06-05T05:19:03.065Z,8.63
2018-06-05T05:19:34.292Z,8.57
2018-06-05T05:20:05.532Z,8.63
2018-06-05T05:20:36.722Z,8.53
2018-06-05T05:21:07.948Z,8.73
2018-06-05T05:21:39.134Z,8.43
2018-06-05T05:22:10.361Z,8.80
2018-06-05T05:22:41.555Z,8.43
2018-06-05T05:23:12.782Z,8.83
2018-06-05T05:23:44.016Z,8.47
2018-06-05T05:24:15.213Z,8.10
2018-06-05T05:24:46.389Z,8.93
2018-06-05T05:25:17.560Z,8.73
2018-06-05T05:25:48.780Z,8.70
2018-06-05T05:26:20.017Z,8.40
2018-06-05T05:26:51.299Z,8.53
2018-06-05T05:27:22.489Z,8.77
2018-06-05T05:27:53.666Z,8.83
2018-06-05T05:28:24.971Z,8.07
2018-06-05T05:28:56.171Z,8.30
2018-06-05T05:29:27.349Z,8.30
2018-06-05T05:30:02.413Z,8.43
2018-06-05T05:30:33.648Z,8.63
2018-06-05T05:31:04.836Z,8.93
2018-06-05T05:31:36.018Z,8.40
2018-06-05T05:32:07.234Z,7.87
2018-06-05T05:32:38.431Z,8.43
2018-06-05T05:33:09.601Z,7.80
2018-06-05T05:33:40.779Z,7.97
2018-06-05T05:34:11.955Z,7.17
2018-06-05T05:34:43.156Z,8.33
2018-06-05T05:35:14.349Z,7.60
2018-06-05T05:35:45.524Z,8.03
2018-06-05T05:36:16.741Z,7.50
2018-06-05T05:36:47.917Z,7.10
2018-06-05T05:37:19.141Z,7.00
2018-06-05T05:37:50.316Z,7.70
2018-06-05T05:38:21.493Z,7.53
2018-06-05T05:38:52.658Z,7.33
2018-06-05T05:39:23.934Z,7.35
2018-06-05T05:39:55.215Z,7.00
2018-06-05T05:40:26.399Z,7.40
2018-06-05T05:40:57.685Z,6.90
2018-06-05T05:41:28.872Z,7.97
2018-06-05T05:42:00.053Z,7.17
2018-06-05T05:42:31.231Z,7.43
2018-06-05T05:43:02.401Z,6.80
2018-06-05T05:43:33.637Z,6.90
2018-06-05T05:44:04.821Z,7.60
2018-06-05T05:44:36.043Z,6.80
2018-06-05T05:45:07.236Z,7.10
2018-06-05T05:45:38.465Z,7.10
2018-06-05T05:46:09.698Z,7.33
2018-06-05T05:46:40.876Z,7.93
2018-06-05T05:47:12.070Z,7.03
2018-06-05T05:47:43.248Z,6.70
2018-06-05T05:48:14.421Z,7.10
2018-06-05T05:48:45.597Z,7.07
2018-06-05T05:49:16.833Z,6.60
2018-06-05T05:49:48.080Z,6.50
2018-06-05T05:50:19.256Z,7.20
2018-06-05T05:50:50.431Z,8.40
2018-06-05T05:51:21.645Z,7.43
2018-06-05T05:51:52.865Z,6.83
2018-06-05T05:52:24.045Z,7.27
2018-06-05T05:52:55.273Z,7.17
2018-06-05T05:53:26.518Z,7.47
2018-06-05T05:53:57.697Z,7.03
2018-06-05T05:54:28.887Z,6.80
2018-06-05T05:55:00.115Z,7.40
2018-06-05T05:55:31.350Z,7.20
2018-06-05T05:56:02.532Z,7.33
2018-06-05T05:56:33.743Z,7.30
2018-06-05T05:57:04.963Z,6.55
2018-06-05T05:57:36.140Z,7.13
2018-06-05T05:58:07.368Z,7.20
2018-06-05T05:58:38.557Z,7.10
2018-06-05T05:59:09.740Z,7.37
2018-06-05T05:59:40.919Z,6.90
2018-06-05T06:00:12.090Z,7.07
2018-06-05T06:00:43.266Z,7.13
2018-06-05T06:01:14.476Z,7.50
2018-06-05T06:01:45.664Z,7.67
2018-06-05T06:02:16.880Z,8.03
2018-06-05T06:02:48.116Z,7.30
2018-06-05T06:03:19.324Z,7.40
2018-06-05T06:03:50.517Z,7.33
2018-06-05T06:04:21.872Z,7.13
2018-06-05T06:04:53.050Z,6.90
2018-06-05T06:05:24.217Z,7.00
2018-06-05T06:05:55.400Z,7.50
2018-06-05T06:06:26.569Z,8.40
2018-06-05T06:06:57.735Z,7.73
2018-06-05T06:07:28.989Z,8.60
2018-06-05T06:08:00.168Z,8.30
2018-06-05T06:08:31.333Z,7.40
2018-06-05T06:09:02.553Z,7.53
2018-06-05T06:09:33.739Z,8.43
2018-06-05T06:10:04.959Z,7.03
2018-06-05T06:10:36.148Z,8.18
2018-06-05T06:11:07.365Z,7.97
2018-06-05T06:11:38.587Z,7.70
2018-06-05T06:12:09.759Z,7.67
2018-06-05T06:12:40.928Z,7.67
2018-06-05T06:13:12.153Z,7.47
2018-06-05T06:13:43.345Z,7.50
2018-06-05T06:14:14.574Z,7.77
2018-06-05T06:14:45.820Z,7.33
2018-06-05T06:15:16.998Z,7.43
2018-06-05T06:15:48.165Z,7.67
2018-06-05T06:16:19.398Z,7.47
2018-06-05T06:16:50.592Z,8.30
2018-06-05T06:17:21.817Z,7.73
2018-06-05T06:17:52.992Z,7.42
2018-06-05T06:18:24.169Z,7.20
2018-06-05T06:18:55.339Z,8.83
2018-06-05T06:19:26.593Z,7.53
2018-06-05T06:19:57.789Z,7.67
2018-06-05T06:20:28.964Z,7.28
2018-06-05T06:21:00.137Z,8.05
2018-06-05T06:21:31.357Z,8.13
2018-06-05T06:22:02.588Z,8.30
2018-06-05T06:22:33.771Z,7.83
2018-06-05T06:23:05.002Z,8.05
2018-06-05T06:23:36.176Z,7.50
2018-06-05T06:24:07.349Z,7.78
2018-06-05T06:24:38.574Z,8.33
2018-06-05T06:25:09.748Z,7.97
2018-06-05T06:25:40.915Z,8.05
2018-06-05T06:26:12.092Z,7.85
2018-06-05T06:26:43.357Z,7.97
2018-06-05T06:27:14.538Z,8.20
2018-06-05T06:27:45.723Z,8.48
2018-06-05T06:28:16.937Z,8.90
2018-06-05T06:28:48.173Z,8.85
2018-06-05T06:29:19.401Z,8.18
2018-06-05T06:29:50.621Z,8.45
2018-06-05T06:30:21.806Z,8.13
2018-06-05T06:30:52.989Z,7.80
2018-06-05T06:31:24.250Z,7.28
2018-06-05T06:31:55.475Z,8.30
2018-06-05T06:32:26.713Z,7.87
2018-06-05T06:32:57.952Z,8.47
2018-06-05T06:33:29.175Z,8.60
2018-06-05T06:34:00.343Z,7.80
2018-06-05T06:34:31.520Z,8.33
2018-06-05T06:35:02.740Z,8.80
2018-06-05T06:35:33.923Z,8.43
2018-06-05T06:36:05.088Z,8.03
2018-06-05T06:36:36.423Z,7.67
2018-06-05T06:37:07.600Z,8.60
2018-06-05T06:37:38.765Z,8.83
2018-06-05T06:38:09.933Z,8.20
2018-06-05T06:38:41.145Z,8.27
2018-06-05T06:39:12.320Z,8.73
2018-06-05T06:39:43.497Z,8.58
2018-06-05T06:40:14.710Z,8.57
2018-06-05T06:40:45.885Z,9.23
2018-06-05T06:41:17.077Z,10.07
2018-06-05T06:41:48.262Z,9.93
2018-06-05T06:42:19.497Z,9.70
2018-06-05T06:42:50.724Z,9.07
2018-06-05T06:43:21.902Z,8.73
2018-06-05T06:43:53.077Z,8.45
2018-06-05T06:44:24.240Z,8.03
2018-06-05T06:44:55.401Z,8.65
2018-06-05T06:45:26.625Z,8.73
2018-06-05T06:45:57.836Z,8.08
2018-06-05T06:46:29.941Z,8.80
2018-06-05T06:47:01.190Z,9.08
2018-06-05T06:47:32.372Z,10.13
2018-06-05T06:48:03.582Z,10.65
2018-06-05T06:48:34.818Z,11.40
2018-06-05T06:49:06.061Z,10.50
2018-06-05T06:49:37.238Z,9.10
2018-06-05T06:50:08.473Z,11.60
2018-06-05T06:50:39.651Z,9.88
2018-06-05T06:51:10.834Z,8.98
2018-06-05T06:51:42.006Z,9.13
2018-06-05T06:52:13.225Z,9.03
2018-06-05T06:52:44.400Z,8.95
2018-06-05T06:53:15.677Z,8.73